createdAt,value
2022-12-04T00:00:53.311Z,0.84
2022-12-04T00:01:51.579Z,0.85
2022-12-04T00:02:51.922Z,0.85
2022-12-04T00:03:57.769Z,0.86
2022-12-04T00:04:54.349Z,0.87
2022-12-04T00:05:55.453Z,0.88
2022-12-04T00:06:57.047Z,0.88
2022-12-04T00:07:55.128Z,0.88
2022-12-04T00:08:53.727Z,0.89
2022-12-04T00:09:54.698Z,0.89
2022-12-04T00:10:52.176Z,0.89
2022-12-04T00:11:52.538Z,0.90
2022-12-04T00:12:51.481Z,0.90
2022-12-04T00:13:51.805Z,0.91
2022-12-04T00:15:23.758Z,0.91
2022-12-04T00:15:55.053Z,0.92
2022-12-04T00:16:54.636Z,0.92
2022-12-04T00:17:51.751Z,0.92
2022-12-04T00:18:51.722Z,0.92
2022-12-04T00:19:51.562Z,0.92
2022-12-04T00:20:51.824Z,0.92
2022-12-04T00:21:51.173Z,0.92
2022-12-04T00:22:53.191Z,0.92
2022-12-04T00:23:51.515Z,0.92
2022-12-04T00:24:53.699Z,0.92
2022-12-04T00:25:51.694Z,0.92
2022-12-04T00:26:51.622Z,0.91
2022-12-04T00:27:51.219Z,0.91
2022-12-04T00:28:53.627Z,0.90
2022-12-04T00:29:51.515Z,0.90
2022-12-04T00:30:52.752Z,0.89
2022-12-04T00:31:52.302Z,0.88
2022-12-04T00:32:51.543Z,0.88
2022-12-04T00:33:53.386Z,0.87
2022-12-04T00:34:51.129Z,0.87
2022-12-04T00:35:54.013Z,0.87
2022-12-04T00:36:51.398Z,0.87
2022-12-04T00:37:52.567Z,0.87
2022-12-04T00:38:53.608Z,0.87
2022-12-04T00:39:53.869Z,0.87
2022-12-04T00:40:52.142Z,0.88
2022-12-04T00:41:51.041Z,0.88
2022-12-04T00:42:53.038Z,0.88
2022-12-04T00:43:52.664Z,0.88
2022-12-04T00:44:51.839Z,0.89
2022-12-04T00:45:51.754Z,0.89
2022-12-04T00:46:50.747Z,0.89
2022-12-04T00:47:50.943Z,0.88
2022-12-04T00:48:51.845Z,0.88
2022-12-04T00:49:50.925Z,0.87
2022-12-04T00:50:52.896Z,0.86
2022-12-04T00:51:52.414Z,0.85
2022-12-04T00:52:52.225Z,0.85
2022-12-04T00:53:52.460Z,0.84
2022-12-04T00:54:52.002Z,0.84
2022-12-04T00:55:50.818Z,0.85
2022-12-04T00:56:52.325Z,0.85
2022-12-04T00:57:58.419Z,0.84
2022-12-04T00:58:52.702Z,0.84
2022-12-04T00:59:50.983Z,0.84
2022-12-04T01:00:53.770Z,0.84
2022-12-04T01:01:53.648Z,0.84
2022-12-04T01:02:51.137Z,0.84
2022-12-04T01:03:51.641Z,0.85
2022-12-04T01:04:51.006Z,0.85
2022-12-04T01:05:50.744Z,0.86
2022-12-04T01:06:57.094Z,0.86
2022-12-04T01:07:53.360Z,0.87
2022-12-04T01:08:51.567Z,0.87
2022-12-04T01:09:52.422Z,0.87
2022-12-04T01:10:53.042Z,0.88
2022-12-04T01:11:50.596Z,0.88
2022-12-04T01:12:51.912Z,0.89
2022-12-04T01:13:50.973Z,0.90
2022-12-04T01:14:51.521Z,0.91
2022-12-04T01:15:50.561Z,0.91
2022-12-04T01:16:52.390Z,0.91
2022-12-04T01:17:50.476Z,0.91
2022-12-04T01:18:51.609Z,0.90
2022-12-04T01:19:53.235Z,0.90
2022-12-04T01:20:50.817Z,0.89
2022-12-04T01:21:50.588Z,0.88
2022-12-04T01:22:51.552Z,0.88
2022-12-04T01:23:51.435Z,0.87
2022-12-04T01:24:51.119Z,0.87
2022-12-04T01:25:51.556Z,0.86
2022-12-04T01:26:50.915Z,0.86
2022-12-04T01:27:51.593Z,0.86
2022-12-04T01:28:51.157Z,0.86
2022-12-04T01:29:50.602Z,0.87
2022-12-04T01:30:51.525Z,0.87
2022-12-04T01:31:50.487Z,0.88
2022-12-04T01:32:50.332Z,0.88
2022-12-04T01:33:51.152Z,0.89
2022-12-04T01:34:50.557Z,0.89
2022-12-04T01:35:50.716Z,0.90
2022-12-04T01:36:50.801Z,0.91
2022-12-04T01:37:51.534Z,0.91
2022-12-04T01:38:52.218Z,0.92
2022-12-04T01:39:50.506Z,0.92
2022-12-04T01:40:50.164Z,0.92
2022-12-04T01:41:50.443Z,0.92
2022-12-04T01:42:51.478Z,0.93
2022-12-04T01:43:51.110Z,0.93
2022-12-04T01:44:51.234Z,0.93
2022-12-04T01:45:51.812Z,0.93
2022-12-04T01:46:50.476Z,0.93
2022-12-04T01:47:51.198Z,0.92
2022-12-04T01:48:51.318Z,0.92
2022-12-04T01:49:52.067Z,0.91
2022-12-04T01:50:51.912Z,0.91
2022-12-04T01:51:51.236Z,0.91
2022-12-04T01:52:49.976Z,0.90
2022-12-04T01:53:50.057Z,0.89
2022-12-04T01:54:50.953Z,0.88
2022-12-04T01:55:52.200Z,0.88
2022-12-04T01:56:50.255Z,0.87
2022-12-04T01:57:50.076Z,0.87
2022-12-04T01:58:49.973Z,0.87
2022-12-04T01:59:49.876Z,0.87
2022-12-04T02:00:51.801Z,0.87
2022-12-04T02:01:50.085Z,0.88
2022-12-04T02:02:50.179Z,0.89
2022-12-04T02:03:50.105Z,0.89
2022-12-04T02:04:50.945Z,0.90
2022-12-04T02:05:49.900Z,0.90
2022-12-04T02:06:50.839Z,0.91
2022-12-04T02:07:51.341Z,0.92
2022-12-04T02:08:52.468Z,0.92
2022-12-04T02:09:51.041Z,0.92
2022-12-04T02:10:51.268Z,0.93
2022-12-04T02:11:55.405Z,0.94
2022-12-04T02:13:01.628Z,0.94
2022-12-04T02:13:54.723Z,0.95
2022-12-04T02:15:00.504Z,0.96
2022-12-04T02:15:57.879Z,0.96
2022-12-04T02:16:56.592Z,0.97
2022-12-04T02:18:14.851Z,0.98
2022-12-04T02:19:04.345Z,0.98
2022-12-04T02:19:55.660Z,0.99
2022-12-04T02:20:54.147Z,0.99
2022-12-04T02:21:53.198Z,0.99
2022-12-04T02:22:59.751Z,0.99
2022-12-04T02:23:58.927Z,0.99
2022-12-04T02:24:52.940Z,0.99
2022-12-04T02:25:52.608Z,0.99
2022-12-04T02:26:56.710Z,0.99
2022-12-04T02:27:56.810Z,0.99
2022-12-04T02:28:52.161Z,0.99
2022-12-04T02:30:51.724Z,2.12
2022-12-04T02:31:49.583Z,1.65
2022-12-04T02:32:50.772Z,1.32
2022-12-04T02:33:49.341Z,1.12
2022-12-04T02:34:49.905Z,1.00
2022-12-04T02:35:50.171Z,0.93
2022-12-04T02:36:49.213Z,0.89
2022-12-04T02:37:49.263Z,0.86
2022-12-04T02:38:50.196Z,0.85
2022-12-04T02:39:49.163Z,0.84
2022-12-04T02:40:50.120Z,0.83
2022-12-04T02:41:49.630Z,0.82
2022-12-04T02:42:49.149Z,0.82
2022-12-04T02:43:49.129Z,0.82
2022-12-04T02:44:49.093Z,0.82
2022-12-04T02:45:49.293Z,0.82
2022-12-04T02:46:50.049Z,0.82
2022-12-04T02:47:49.045Z,0.82
2022-12-04T02:48:49.148Z,0.82
2022-12-04T02:49:49.107Z,0.82
2022-12-04T02:50:48.998Z,0.83
2022-12-04T02:51:49.070Z,0.83
2022-12-04T02:52:50.466Z,0.83
2022-12-04T02:53:48.963Z,0.83
2022-12-04T02:54:49.304Z,0.82
2022-12-04T02:55:48.905Z,0.82
2022-12-04T02:56:48.980Z,0.81
2022-12-04T02:57:49.251Z,0.81
2022-12-04T02:58:49.875Z,0.81
2022-12-04T02:59:48.997Z,0.81
2022-12-04T03:00:48.949Z,0.82
2022-12-04T03:01:49.591Z,0.82
2022-12-04T03:02:48.948Z,0.82
2022-12-04T03:03:49.856Z,0.82
2022-12-04T03:04:48.946Z,0.82
2022-12-04T03:05:49.189Z,0.83
2022-12-04T03:06:48.859Z,0.83
2022-12-04T03:07:48.924Z,0.83
2022-12-04T03:08:49.713Z,0.83
2022-12-04T03:09:49.320Z,0.84
2022-12-04T03:10:48.813Z,0.84
2022-12-04T03:11:48.858Z,0.84
2022-12-04T03:12:48.831Z,0.84
2022-12-04T03:13:49.886Z,0.84
2022-12-04T03:14:48.704Z,0.83
2022-12-04T03:15:48.979Z,0.83
2022-12-04T03:16:48.776Z,0.83
2022-12-04T03:17:48.636Z,0.84
2022-12-04T03:18:49.811Z,0.83
2022-12-04T03:19:49.577Z,0.84
2022-12-04T03:20:48.641Z,0.84
2022-12-04T03:21:48.664Z,0.84
2022-12-04T03:22:50.118Z,0.85
2022-12-04T03:23:50.440Z,0.85
2022-12-04T03:24:49.562Z,0.86
2022-12-04T03:25:48.599Z,0.86
2022-12-04T03:26:48.690Z,0.86
2022-12-04T03:27:48.606Z,0.87
2022-12-04T03:28:48.557Z,0.87
2022-12-04T03:29:51.469Z,0.87
2022-12-04T03:30:48.738Z,0.88
2022-12-04T03:31:48.583Z,0.89
2022-12-04T03:32:48.862Z,0.89
2022-12-04T03:33:48.482Z,0.90
2022-12-04T03:34:48.499Z,0.91
2022-12-04T03:35:49.437Z,0.92
2022-12-04T03:36:48.467Z,0.94
2022-12-04T03:37:49.702Z,0.94
2022-12-04T03:38:48.464Z,0.95
2022-12-04T03:39:48.437Z,0.96
2022-12-04T03:40:48.687Z,0.96
2022-12-04T03:41:50.130Z,0.97
2022-12-04T03:42:48.422Z,0.97
2022-12-04T03:43:48.404Z,0.97
2022-12-04T03:44:48.335Z,0.97
2022-12-04T03:45:48.446Z,0.97
2022-12-04T03:46:49.455Z,0.98
2022-12-04T03:47:48.396Z,0.98
2022-12-04T03:48:48.333Z,0.98
2022-12-04T03:49:49.315Z,0.99
2022-12-04T03:50:48.258Z,0.99
2022-12-04T03:51:49.545Z,1.00
2022-12-04T03:52:48.305Z,1.00
2022-12-04T03:53:48.310Z,1.00
2022-12-04T03:54:48.309Z,1.00
2022-12-04T03:55:49.678Z,1.00
2022-12-04T03:56:48.238Z,1.00
2022-12-04T03:57:49.326Z,1.00
2022-12-04T03:58:48.152Z,1.00
2022-12-04T03:59:53.917Z,1.01
2022-12-04T04:00:49.659Z,1.01
2022-12-04T04:01:48.191Z,1.02
2022-12-04T04:02:49.136Z,1.02
2022-12-04T04:03:48.186Z,1.03
2022-12-04T04:04:48.442Z,1.03
2022-12-04T04:05:48.136Z,1.03
2022-12-04T04:06:48.156Z,1.03
2022-12-04T04:07:49.132Z,1.03
2022-12-04T04:08:48.053Z,1.02
2022-12-04T04:09:48.118Z,1.02
2022-12-04T04:10:49.052Z,1.03
2022-12-04T04:11:47.987Z,1.03
2022-12-04T04:12:47.999Z,1.03
2022-12-04T04:13:49.725Z,1.03
2022-12-04T04:14:47.948Z,1.03
2022-12-04T04:15:48.127Z,1.03
2022-12-04T04:16:47.932Z,1.03
2022-12-04T04:17:50.082Z,1.04
2022-12-04T04:18:49.028Z,1.04
2022-12-04T04:19:48.268Z,1.05
2022-12-04T04:20:48.879Z,1.05
2022-12-04T04:21:47.963Z,1.05
2022-12-04T04:22:51.641Z,1.06
2022-12-04T04:23:48.896Z,1.06
2022-12-04T04:24:48.847Z,1.06
2022-12-04T04:25:48.269Z,1.06
2022-12-04T04:26:47.818Z,1.07
2022-12-04T04:27:47.792Z,1.07
2022-12-04T04:28:47.946Z,1.08
2022-12-04T04:29:52.594Z,1.08
2022-12-04T04:30:47.800Z,1.08
2022-12-04T04:31:47.853Z,1.09
2022-12-04T04:32:49.010Z,1.10
2022-12-04T04:33:47.807Z,1.11
2022-12-04T04:34:48.667Z,1.11
2022-12-04T04:35:48.335Z,1.12
2022-12-04T04:36:47.800Z,1.12
2022-12-04T04:37:47.703Z,1.11
2022-12-04T04:38:47.844Z,1.11
2022-12-04T04:39:48.583Z,1.11
2022-12-04T04:40:47.722Z,1.11
2022-12-04T04:41:48.979Z,1.11
2022-12-04T04:42:47.630Z,1.12
2022-12-04T04:43:47.723Z,1.12
2022-12-04T04:44:47.687Z,1.13
2022-12-04T04:45:48.533Z,1.14
2022-12-04T04:46:47.773Z,1.14
2022-12-04T04:47:47.603Z,1.15
2022-12-04T04:48:47.499Z,1.15
2022-12-04T04:49:48.112Z,1.16
2022-12-04T04:50:48.500Z,1.16
2022-12-04T04:51:47.673Z,1.17
2022-12-04T04:52:48.131Z,1.17
2022-12-04T04:53:47.575Z,1.17
2022-12-04T04:54:47.383Z,1.17
2022-12-04T04:55:48.472Z,1.17
2022-12-04T04:56:47.443Z,1.17
2022-12-04T04:57:48.478Z,1.17
2022-12-04T04:58:47.454Z,1.17
2022-12-04T04:59:47.361Z,1.16
2022-12-04T05:00:47.361Z,1.16
2022-12-04T05:01:48.480Z,1.16
2022-12-04T05:02:47.635Z,1.16
2022-12-04T05:03:47.324Z,1.16
2022-12-04T05:04:47.437Z,1.16
2022-12-04T05:05:47.418Z,1.16
2022-12-04T05:06:48.266Z,1.17
2022-12-04T05:07:47.567Z,1.17
2022-12-04T05:08:47.286Z,1.17
2022-12-04T05:09:47.409Z,1.17
2022-12-04T05:10:47.413Z,1.18
2022-12-04T05:11:47.275Z,1.18
2022-12-04T05:12:49.249Z,1.19
2022-12-04T05:13:47.271Z,1.19
2022-12-04T05:14:47.284Z,1.19
2022-12-04T05:15:47.980Z,1.19
2022-12-04T05:16:47.191Z,1.19
2022-12-04T05:17:48.084Z,1.18
2022-12-04T05:18:47.617Z,1.18
2022-12-04T05:19:47.154Z,1.18
2022-12-04T05:20:47.110Z,1.18
2022-12-04T05:21:47.939Z,1.18
2022-12-04T05:22:48.139Z,1.18
2022-12-04T05:23:48.082Z,1.18
2022-12-04T05:24:47.252Z,1.18
2022-12-04T05:25:48.069Z,1.19
2022-12-04T05:26:47.092Z,1.19
2022-12-04T05:27:49.568Z,1.20
2022-12-04T05:28:47.990Z,1.20
2022-12-04T05:29:47.077Z,1.21
2022-12-04T05:30:47.319Z,1.21
2022-12-04T05:31:47.763Z,1.22
2022-12-04T05:32:46.976Z,1.22
2022-12-04T05:33:46.959Z,1.23
2022-12-04T05:34:47.920Z,1.24
2022-12-04T05:35:47.074Z,1.24
2022-12-04T05:36:46.931Z,1.25
2022-12-04T05:37:47.810Z,1.25
2022-12-04T05:38:48.133Z,1.25
2022-12-04T05:39:48.323Z,1.25
2022-12-04T05:40:46.886Z,1.25
2022-12-04T05:41:47.807Z,1.25
2022-12-04T05:42:46.805Z,1.25
2022-12-04T05:43:46.773Z,1.25
2022-12-04T05:44:46.976Z,1.25
2022-12-04T05:45:47.862Z,1.25
2022-12-04T05:46:47.034Z,1.25
2022-12-04T05:47:47.686Z,1.25
2022-12-04T05:48:46.807Z,1.26
2022-12-04T05:49:46.841Z,1.26
2022-12-04T05:50:48.306Z,1.27
2022-12-04T05:51:46.788Z,1.27
2022-12-04T05:52:46.759Z,1.28
2022-12-04T05:53:47.682Z,1.29
2022-12-04T05:54:46.687Z,1.29
2022-12-04T05:55:47.731Z,1.30
2022-12-04T05:56:46.696Z,1.30
2022-12-04T05:57:46.655Z,1.31
2022-12-04T05:58:46.641Z,1.31
2022-12-04T05:59:46.689Z,1.31
2022-12-04T06:00:47.592Z,1.32
2022-12-04T06:01:47.314Z,1.32
2022-12-04T06:02:46.663Z,1.32
2022-12-04T06:03:46.577Z,1.33
2022-12-04T06:04:47.966Z,1.33
2022-12-04T06:05:46.596Z,1.33
2022-12-04T06:06:47.550Z,1.34
2022-12-04T06:07:46.734Z,1.34
2022-12-04T06:08:46.704Z,1.34
2022-12-04T06:09:46.672Z,1.34
2022-12-04T06:10:46.491Z,1.34
2022-12-04T06:11:46.522Z,1.34
2022-12-04T06:12:47.451Z,1.35
2022-12-04T06:13:46.512Z,1.35
2022-12-04T06:14:46.406Z,1.36
2022-12-04T06:15:46.456Z,1.37
2022-12-04T06:16:46.488Z,1.38
2022-12-04T06:17:46.462Z,1.39
2022-12-04T06:18:48.316Z,1.40
2022-12-04T06:19:47.408Z,1.41
2022-12-04T06:20:46.520Z,1.42
2022-12-04T06:21:46.366Z,1.43
2022-12-04T06:22:46.679Z,1.44
2022-12-04T06:23:46.376Z,1.44
2022-12-04T06:24:53.381Z,1.44
2022-12-04T06:25:46.322Z,1.44
2022-12-04T06:27:25.155Z,1.44
2022-12-04T06:27:48.240Z,1.44
2022-12-04T06:28:46.344Z,1.44
2022-12-04T06:29:47.557Z,1.44
2022-12-04T06:30:47.182Z,1.44
2022-12-04T06:31:46.281Z,1.44
2022-12-04T06:32:46.279Z,1.44
2022-12-04T06:33:46.302Z,1.43
2022-12-04T06:34:46.139Z,1.43
2022-12-04T06:35:46.214Z,1.42
2022-12-04T06:36:47.763Z,1.42
2022-12-04T06:37:46.180Z,1.41
2022-12-04T06:38:46.189Z,1.40
2022-12-04T06:39:46.225Z,1.40
2022-12-04T06:40:47.010Z,1.40
2022-12-04T06:41:52.499Z,1.40
2022-12-04T06:42:46.951Z,1.41
2022-12-04T06:43:46.127Z,1.41
2022-12-04T06:44:46.085Z,1.41
2022-12-04T06:45:46.689Z,1.42
2022-12-04T06:46:47.365Z,1.42
2022-12-04T06:47:46.951Z,1.42
2022-12-04T06:48:46.564Z,1.42
2022-12-04T06:49:46.064Z,1.43
2022-12-04T06:50:46.093Z,1.43
2022-12-04T06:51:47.569Z,1.43
2022-12-04T06:52:46.102Z,1.44
2022-12-04T06:53:46.892Z,1.44
2022-12-04T06:54:46.218Z,1.44
2022-12-04T06:55:46.847Z,1.44
2022-12-04T06:56:46.855Z,1.45
2022-12-04T06:57:45.921Z,1.45
2022-12-04T06:58:46.853Z,1.46
2022-12-04T06:59:46.777Z,1.46
2022-12-04T07:00:46.402Z,1.46
2022-12-04T07:01:46.075Z,1.46
2022-12-04T07:02:46.191Z,1.46
2022-12-04T07:03:51.030Z,1.45
2022-12-04T07:04:47.817Z,1.45
2022-12-04T07:05:45.867Z,1.44
2022-12-04T07:06:45.792Z,1.44
2022-12-04T07:07:45.869Z,1.44
2022-12-04T07:08:47.136Z,1.44
2022-12-04T07:09:46.696Z,1.44
2022-12-04T07:10:45.817Z,1.45
2022-12-04T07:11:45.762Z,1.44
2022-12-04T07:12:45.764Z,1.45
2022-12-04T07:13:45.877Z,1.45
2022-12-04T07:14:45.746Z,1.44
2022-12-04T07:15:46.956Z,1.44
2022-12-04T07:16:45.875Z,1.44
2022-12-04T07:17:46.262Z,1.44
2022-12-04T07:18:45.631Z,1.45
2022-12-04T07:19:45.646Z,1.45
2022-12-04T07:20:45.716Z,1.45
2022-12-04T07:21:46.962Z,1.46
2022-12-04T07:22:45.659Z,1.46
2022-12-04T07:23:45.673Z,1.47
2022-12-04T07:24:45.598Z,1.48
2022-12-04T07:25:46.150Z,1.49
2022-12-04T07:26:47.406Z,1.49
2022-12-04T07:27:45.640Z,1.50
2022-12-04T07:28:45.466Z,1.51
2022-12-04T07:29:46.146Z,1.52
2022-12-04T07:30:45.548Z,1.52
2022-12-04T07:31:46.465Z,1.53
2022-12-04T07:32:45.501Z,1.53
2022-12-04T07:33:45.509Z,1.53
2022-12-04T07:34:45.487Z,1.54
2022-12-04T07:35:45.479Z,1.54
2022-12-04T07:36:46.446Z,1.54
2022-12-04T07:37:45.884Z,1.54
2022-12-04T07:38:45.470Z,1.53
2022-12-04T07:39:45.353Z,1.53
2022-12-04T07:40:49.224Z,1.53
2022-12-04T07:41:46.270Z,1.53
2022-12-04T07:42:45.351Z,1.54
2022-12-04T07:43:45.359Z,1.54
2022-12-04T07:44:45.245Z,1.55
2022-12-04T07:45:45.588Z,1.56
2022-12-04T07:46:45.310Z,1.56
2022-12-04T07:47:46.213Z,1.57
2022-12-04T07:48:45.316Z,1.57
2022-12-04T07:49:46.242Z,1.57
2022-12-04T07:50:45.313Z,1.57
2022-12-04T07:51:45.322Z,1.57
2022-12-04T07:52:45.262Z,1.57
2022-12-04T07:53:51.679Z,1.57
2022-12-04T07:54:45.250Z,1.57
2022-12-04T07:55:45.197Z,1.57
2022-12-04T07:56:46.315Z,1.58
2022-12-04T07:57:45.185Z,1.58
2022-12-04T07:58:46.076Z,1.59
2022-12-04T07:59:46.826Z,1.59
2022-12-04T08:00:45.164Z,1.59
2022-12-04T08:01:45.324Z,1.59
2022-12-04T08:02:45.199Z,1.59
2022-12-04T08:03:48.474Z,1.59
2022-12-04T08:04:45.171Z,1.59
2022-12-04T08:05:45.127Z,1.59
2022-12-04T08:06:46.010Z,1.59
2022-12-04T08:07:45.082Z,1.59
2022-12-04T08:08:45.871Z,1.59
2022-12-04T08:09:45.056Z,1.60
2022-12-04T08:10:45.014Z,1.60
2022-12-04T08:11:45.016Z,1.61
2022-12-04T08:12:45.100Z,1.62
2022-12-04T08:13:51.521Z,1.63
2022-12-04T08:14:44.943Z,1.64
2022-12-04T08:15:44.881Z,1.65
2022-12-04T08:16:49.668Z,1.65
2022-12-04T08:17:46.400Z,1.65
2022-12-04T08:18:44.815Z,1.65
2022-12-04T08:19:45.878Z,1.65
2022-12-04T08:20:44.979Z,1.65
2022-12-04T08:21:44.918Z,1.65
2022-12-04T08:22:44.970Z,1.65
2022-12-04T08:23:44.954Z,1.65
2022-12-04T08:24:46.848Z,1.65
2022-12-04T08:25:44.916Z,1.66
2022-12-04T08:26:44.810Z,1.67
2022-12-04T08:27:47.526Z,1.67
2022-12-04T08:28:44.794Z,1.68
2022-12-04T08:29:44.858Z,1.68
2022-12-04T08:30:51.405Z,1.68
